sensor_id;sensor_type;location;lat;lon;timestamp;temperature;humidity
6581;DHT22;3324;50.796;7.228;2022-11-23T00:00:32;10.00;99.90
6581;DHT22;3324;50.796;7.228;2022-11-23T00:02:59;10.00;99.90
6581;DHT22;3324;50.796;7.228;2022-11-23T00:05:26;10.00;99.90
6581;DHT22;3324;50.796;7.228;2022-11-23T00:07:52;10.00;99.90
6581;DHT22;3324;50.796;7.228;2022-11-23T00:10:18;10.00;99.90
6581;DHT22;3324;50.796;7.228;2022-11-23T00:12:44;10.10;99.90
6581;DHT22;3324;50.796;7.228;2022-11-23T00:15:12;10.10;99.90
6581;DHT22;3324;50.796;7.228;2022-11-23T00:17:38;10.10;99.90
6581;DHT22;3324;50.796;7.228;2022-11-23T00:20:05;10.10;99.90
6581;DHT22;3324;50.796;7.228;2022-11-23T00:22:31;10.20;99.90
6581;DHT22;3324;50.796;7.228;2022-11-23T00:24:57;10.20;99.90
6581;DHT22;3324;50.796;7.228;2022-11-23T00:27:23;10.10;99.90
6581;DHT22;3324;50.796;7.228;2022-11-23T00:29:48;10.20;99.90
6581;DHT22;3324;50.796;7.228;2022-11-23T00:32:14;10.20;99.90
6581;DHT22;3324;50.796;7.228;2022-11-23T00:34:39;10.20;99.90
6581;DHT22;3324;50.796;7.228;2022-11-23T00:37:05;10.20;99.90
6581;DHT22;3324;50.796;7.228;2022-11-23T00:39:31;10.10;99.90
6581;DHT22;3324;50.796;7.228;2022-11-23T00:41:56;10.20;99.90
6581;DHT22;3324;50.796;7.228;2022-11-23T00:44:22;10.20;99.90
6581;DHT22;3324;50.796;7.228;2022-11-23T00:46:47;10.20;99.90
6581;DHT22;3324;50.796;7.228;2022-11-23T00:49:13;10.20;99.90
6581;DHT22;3324;50.796;7.228;2022-11-23T00:51:38;10.20;99.90
6581;DHT22;3324;50.796;7.228;2022-11-23T00:54:05;10.20;99.90
6581;DHT22;3324;50.796;7.228;2022-11-23T00:56:32;10.20;99.90
6581;DHT22;3324;50.796;7.228;2022-11-23T00:59:00;10.20;99.90
6581;DHT22;3324;50.796;7.228;2022-11-23T01:01:30;10.20;99.90
6581;DHT22;3324;50.796;7.228;2022-11-23T01:04:00;10.20;99.90
6581;DHT22;3324;50.796;7.228;2022-11-23T01:06:44;10.10;99.90
6581;DHT22;3324;50.796;7.228;2022-11-23T01:09:14;10.10;99.90
6581;DHT22;3324;50.796;7.228;2022-11-23T01:11:42;10.10;99.90
6581;DHT22;3324;50.796;7.228;2022-11-23T01:14:08;10.10;99.90
6581;DHT22;3324;50.796;7.228;2022-11-23T01:16:37;10.20;99.90
6581;DHT22;3324;50.796;7.228;2022-11-23T01:19:06;10.20;99.90
6581;DHT22;3324;50.796;7.228;2022-11-23T01:21:33;10.10;99.90
6581;DHT22;3324;50.796;7.228;2022-11-23T01:23:58;10.20;99.90
6581;DHT22;3324;50.796;7.228;2022-11-23T01:26:24;10.20;99.90
6581;DHT22;3324;50.796;7.228;2022-11-23T01:28:50;10.20;99.90
6581;DHT22;3324;50.796;7.228;2022-11-23T01:31:19;10.20;99.90
6581;DHT22;3324;50.796;7.228;2022-11-23T01:33:45;10.20;99.90
6581;DHT22;3324;50.796;7.228;2022-11-23T01:36:19;10.20;99.90
6581;DHT22;3324;50.796;7.228;2022-11-23T01:38:46;10.20;99.90
6581;DHT22;3324;50.796;7.228;2022-11-23T01:41:14;10.30;99.90
6581;DHT22;3324;50.796;7.228;2022-11-23T01:43:40;10.20;99.90
6581;DHT22;3324;50.796;7.228;2022-11-23T01:46:06;10.20;99.90
6581;DHT22;3324;50.796;7.228;2022-11-23T01:51:15;10.10;99.90
6581;DHT22;3324;50.796;7.228;2022-11-23T01:53:44;10.10;99.90
6581;DHT22;3324;50.796;7.228;2022-11-23T01:56:14;10.10;99.90
6581;DHT22;3324;50.796;7.228;2022-11-23T01:58:45;10.10;99.90
6581;DHT22;3324;50.796;7.228;2022-11-23T02:01:12;10.00;99.90
6581;DHT22;3324;50.796;7.228;2022-11-23T02:03:39;10.10;99.90
6581;DHT22;3324;50.796;7.228;2022-11-23T02:06:12;10.10;99.90
6581;DHT22;3324;50.796;7.228;2022-11-23T02:08:39;10.20;99.90
6581;DHT22;3324;50.796;7.228;2022-11-23T02:11:06;10.30;99.90
6581;DHT22;3324;50.796;7.228;2022-11-23T02:13:31;10.20;99.90
6581;DHT22;3324;50.796;7.228;2022-11-23T02:15:57;10.20;99.90
6581;DHT22;3324;50.796;7.228;2022-11-23T02:18:29;10.20;99.90
6581;DHT22;3324;50.796;7.228;2022-11-23T02:20:59;10.10;99.90
6581;DHT22;3324;50.796;7.228;2022-11-23T02:26:29;10.30;99.90
6581;DHT22;3324;50.796;7.228;2022-11-23T02:29:13;10.30;99.90
6581;DHT22;3324;50.796;7.228;2022-11-23T02:31:40;10.30;99.90
6581;DHT22;3324;50.796;7.228;2022-11-23T02:34:06;10.20;99.90
6581;DHT22;3324;50.796;7.228;2022-11-23T02:41:38;10.20;99.90
6581;DHT22;3324;50.796;7.228;2022-11-23T02:44:06;10.20;99.90
6581;DHT22;3324;50.796;7.228;2022-11-23T02:46:33;10.20;99.90
6581;DHT22;3324;50.796;7.228;2022-11-23T02:48:59;10.20;99.90
6581;DHT22;3324;50.796;7.228;2022-11-23T02:51:24;10.30;99.90
6581;DHT22;3324;50.796;7.228;2022-11-23T02:53:50;10.20;99.90
6581;DHT22;3324;50.796;7.228;2022-11-23T02:56:15;10.30;99.90
6581;DHT22;3324;50.796;7.228;2022-11-23T02:58:41;10.30;99.90
6581;DHT22;3324;50.796;7.228;2022-11-23T03:01:06;10.20;99.90
6581;DHT22;3324;50.796;7.228;2022-11-23T03:03:32;10.20;99.90
6581;DHT22;3324;50.796;7.228;2022-11-23T03:05:58;10.30;99.90
6581;DHT22;3324;50.796;7.228;2022-11-23T03:08:23;10.30;99.90
6581;DHT22;3324;50.796;7.228;2022-11-23T03:10:49;10.30;99.90
6581;DHT22;3324;50.796;7.228;2022-11-23T03:13:14;10.30;99.90
6581;DHT22;3324;50.796;7.228;2022-11-23T03:15:40;10.30;99.90
6581;DHT22;3324;50.796;7.228;2022-11-23T03:18:05;10.30;99.90
6581;DHT22;3324;50.796;7.228;2022-11-23T03:20:31;10.30;99.90
6581;DHT22;3324;50.796;7.228;2022-11-23T03:22:56;10.30;99.90
6581;DHT22;3324;50.796;7.228;2022-11-23T03:25:22;10.20;99.90
6581;DHT22;3324;50.796;7.228;2022-11-23T03:27:48;10.30;99.90
6581;DHT22;3324;50.796;7.228;2022-11-23T03:30:13;10.30;99.90
6581;DHT22;3324;50.796;7.228;2022-11-23T03:32:39;10.30;99.90
6581;DHT22;3324;50.796;7.228;2022-11-23T03:35:05;10.30;99.90
6581;DHT22;3324;50.796;7.228;2022-11-23T03:37:32;10.20;99.90
6581;DHT22;3324;50.796;7.228;2022-11-23T03:39:58;10.30;99.90
6581;DHT22;3324;50.796;7.228;2022-11-23T03:42:23;10.20;99.90
6581;DHT22;3324;50.796;7.228;2022-11-23T03:44:49;10.30;99.90
6581;DHT22;3324;50.796;7.228;2022-11-23T03:47:14;10.30;99.90
6581;DHT22;3324;50.796;7.228;2022-11-23T03:49:40;10.30;99.90
6581;DHT22;3324;50.796;7.228;2022-11-23T03:52:06;10.30;99.90
6581;DHT22;3324;50.796;7.228;2022-11-23T03:54:31;10.20;99.90
6581;DHT22;3324;50.796;7.228;2022-11-23T03:56:57;10.20;99.90
6581;DHT22;3324;50.796;7.228;2022-11-23T03:59:23;10.20;99.90
6581;DHT22;3324;50.796;7.228;2022-11-23T04:01:48;10.20;99.90
6581;DHT22;3324;50.796;7.228;2022-11-23T04:04:14;10.20;99.90
6581;DHT22;3324;50.796;7.228;2022-11-23T04:06:39;10.20;99.90
6581;DHT22;3324;50.796;7.228;2022-11-23T04:09:06;10.20;99.90
6581;DHT22;3324;50.796;7.228;2022-11-23T04:11:32;10.20;99.90
6581;DHT22;3324;50.796;7.228;2022-11-23T04:13:57;10.20;99.90
6581;DHT22;3324;50.796;7.228;2022-11-23T04:16:23;10.20;99.90
6581;DHT22;3324;50.796;7.228;2022-11-23T04:18:48;10.10;99.90
6581;DHT22;3324;50.796;7.228;2022-11-23T04:21:14;10.10;99.90
6581;DHT22;3324;50.796;7.228;2022-11-23T04:23:39;10.20;99.90
6581;DHT22;3324;50.796;7.228;2022-11-23T04:26:05;10.10;99.90
6581;DHT22;3324;50.796;7.228;2022-11-23T04:28:30;10.20;99.90
6581;DHT22;3324;50.796;7.228;2022-11-23T04:30:56;10.20;99.90
6581;DHT22;3324;50.796;7.228;2022-11-23T04:33:23;10.10;99.90
6581;DHT22;3324;50.796;7.228;2022-11-23T04:35:49;10.20;99.90
6581;DHT22;3324;50.796;7.228;2022-11-23T04:38:14;10.20;99.90
6581;DHT22;3324;50.796;7.228;2022-11-23T04:40:40;10.20;99.90
6581;DHT22;3324;50.796;7.228;2022-11-23T04:43:05;10.30;99.90
6581;DHT22;3324;50.796;7.228;2022-11-23T04:45:31;10.20;99.90
6581;DHT22;3324;50.796;7.228;2022-11-23T04:47:57;10.20;99.90
6581;DHT22;3324;50.796;7.228;2022-11-23T04:50:22;10.20;99.90
6581;DHT22;3324;50.796;7.228;2022-11-23T04:52:48;10.20;99.90
6581;DHT22;3324;50.796;7.228;2022-11-23T04:55:14;10.20;99.90
6581;DHT22;3324;50.796;7.228;2022-11-23T04:57:39;10.10;99.90
6581;DHT22;3324;50.796;7.228;2022-11-23T05:00:05;10.10;99.90
6581;DHT22;3324;50.796;7.228;2022-11-23T05:02:31;10.20;99.90
6581;DHT22;3324;50.796;7.228;2022-11-23T05:04:56;10.20;99.90
6581;DHT22;3324;50.796;7.228;2022-11-23T05:07:22;10.30;99.90
6581;DHT22;3324;50.796;7.228;2022-11-23T05:09:47;10.20;99.90
6581;DHT22;3324;50.796;7.228;2022-11-23T05:12:13;10.00;99.90
6581;DHT22;3324;50.796;7.228;2022-11-23T05:14:39;10.10;99.90
6581;DHT22;3324;50.796;7.228;2022-11-23T05:17:04;10.00;99.90
6581;DHT22;3324;50.796;7.228;2022-11-23T05:19:30;10.10;99.90
6581;DHT22;3324;50.796;7.228;2022-11-23T05:21:55;10.10;99.90
6581;DHT22;3324;50.796;7.228;2022-11-23T05:24:21;10.00;99.90
6581;DHT22;3324;50.796;7.228;2022-11-23T05:26:46;10.10;99.90
6581;DHT22;3324;50.796;7.228;2022-11-23T05:29:12;10.10;99.90
6581;DHT22;3324;50.796;7.228;2022-11-23T05:31:37;10.10;99.90
6581;DHT22;3324;50.796;7.228;2022-11-23T05:34:03;10.20;99.90
6581;DHT22;3324;50.796;7.228;2022-11-23T05:36:29;10.10;99.90
6581;DHT22;3324;50.796;7.228;2022-11-23T05:38:54;10.20;99.90
6581;DHT22;3324;50.796;7.228;2022-11-23T05:41:20;10.10;99.90
6581;DHT22;3324;50.796;7.228;2022-11-23T05:43:45;10.10;99.90
6581;DHT22;3324;50.796;7.228;2022-11-23T05:46:11;10.00;99.90
6581;DHT22;3324;50.796;7.228;2022-11-23T05:48:36;10.00;99.90
6581;DHT22;3324;50.796;7.228;2022-11-23T05:51:02;10.00;99.90
6581;DHT22;3324;50.796;7.228;2022-11-23T05:53:27;10.00;99.90
6581;DHT22;3324;50.796;7.228;2022-11-23T05:55:58;10.10;99.90
6581;DHT22;3324;50.796;7.228;2022-11-23T05:58:24;10.00;99.90
6581;DHT22;3324;50.796;7.228;2022-11-23T06:00:50;10.00;99.90
6581;DHT22;3324;50.796;7.228;2022-11-23T06:03:15;10.10;99.90
6581;DHT22;3324;50.796;7.228;2022-11-23T06:05:41;10.00;99.90
6581;DHT22;3324;50.796;7.228;2022-11-23T06:08:06;10.00;99.90
6581;DHT22;3324;50.796;7.228;2022-11-23T06:10:32;9.90;99.90
6581;DHT22;3324;50.796;7.228;2022-11-23T06:13:02;9.90;99.90
6581;DHT22;3324;50.796;7.228;2022-11-23T06:15:28;10.00;99.90
6581;DHT22;3324;50.796;7.228;2022-11-23T06:17:58;9.90;99.90
6581;DHT22;3324;50.796;7.228;2022-11-23T06:20:24;9.90;99.90
6581;DHT22;3324;50.796;7.228;2022-11-23T06:22:53;9.90;99.90
6581;DHT22;3324;50.796;7.228;2022-11-23T06:25:19;9.90;99.90
6581;DHT22;3324;50.796;7.228;2022-11-23T06:27:55;10.00;99.90
6581;DHT22;3324;50.796;7.228;2022-11-23T06:30:21;10.00;99.90
6581;DHT22;3324;50.796;7.228;2022-11-23T06:32:47;10.10;99.90
6581;DHT22;3324;50.796;7.228;2022-11-23T06:35:12;10.00;99.90
6581;DHT22;3324;50.796;7.228;2022-11-23T06:37:38;10.00;99.90
6581;DHT22;3324;50.796;7.228;2022-11-23T06:40:04;10.00;99.90
6581;DHT22;3324;50.796;7.228;2022-11-23T06:42:30;10.00;99.90
6581;DHT22;3324;50.796;7.228;2022-11-23T06:44:55;10.00;99.90
6581;DHT22;3324;50.796;7.228;2022-11-23T06:47:21;10.00;99.90
6581;DHT22;3324;50.796;7.228;2022-11-23T06:49:46;9.90;99.90
6581;DHT22;3324;50.796;7.228;2022-11-23T06:52:12;9.80;99.90
6581;DHT22;3324;50.796;7.228;2022-11-23T06:54:38;9.80;99.90
6581;DHT22;3324;50.796;7.228;2022-11-23T06:57:07;9.80;99.90
6581;DHT22;3324;50.796;7.228;2022-11-23T06:59:32;9.90;99.90
6581;DHT22;3324;50.796;7.228;2022-11-23T07:01:58;9.90;99.90
6581;DHT22;3324;50.796;7.228;2022-11-23T07:04:23;9.90;99.90
6581;DHT22;3324;50.796;7.228;2022-11-23T07:06:49;9.80;99.90
6581;DHT22;3324;50.796;7.228;2022-11-23T07:09:14;9.80;99.90
6581;DHT22;3324;50.796;7.228;2022-11-23T07:11:40;9.80;99.90
6581;DHT22;3324;50.796;7.228;2022-11-23T07:14:07;9.80;99.90
6581;DHT22;3324;50.796;7.228;2022-11-23T07:16:33;9.70;99.90
6581;DHT22;3324;50.796;7.228;2022-11-23T07:18:58;9.70;99.90
6581;DHT22;3324;50.796;7.228;2022-11-23T07:21:24;9.70;99.90
6581;DHT22;3324;50.796;7.228;2022-11-23T07:23:49;9.80;99.90
6581;DHT22;3324;50.796;7.228;2022-11-23T07:26:15;9.80;99.90
6581;DHT22;3324;50.796;7.228;2022-11-23T07:28:41;9.80;99.90
6581;DHT22;3324;50.796;7.228;2022-11-23T07:31:06;9.80;99.90
6581;DHT22;3324;50.796;7.228;2022-11-23T07:33:32;9.80;99.90
6581;DHT22;3324;50.796;7.228;2022-11-23T07:36:01;9.80;99.90
6581;DHT22;3324;50.796;7.228;2022-11-23T07:38:27;9.80;99.90
6581;DHT22;3324;50.796;7.228;2022-11-23T07:40:53;9.80;99.90
6581;DHT22;3324;50.796;7.228;2022-11-23T07:43:18;9.80;99.90
6581;DHT22;3324;50.796;7.228;2022-11-23T07:45:44;9.70;99.90
6581;DHT22;3324;50.796;7.228;2022-11-23T07:48:10;9.70;99.90
6581;DHT22;3324;50.796;7.228;2022-11-23T07:50:37;9.70;99.90
6581;DHT22;3324;50.796;7.228;2022-11-23T07:53:04;9.70;99.90
6581;DHT22;3324;50.796;7.228;2022-11-23T07:55:31;9.70;99.90
6581;DHT22;3324;50.796;7.228;2022-11-23T07:57:57;9.70;99.90
6581;DHT22;3324;50.796;7.228;2022-11-23T08:00:25;9.80;99.90
6581;DHT22;3324;50.796;7.228;2022-11-23T08:02:51;9.80;99.90
6581;DHT22;3324;50.796;7.228;2022-11-23T08:05:17;9.80;99.90
6581;DHT22;3324;50.796;7.228;2022-11-23T08:07:43;9.80;99.90
6581;DHT22;3324;50.796;7.228;2022-11-23T08:10:10;9.90;99.90
6581;DHT22;3324;50.796;7.228;2022-11-23T08:12:36;9.90;99.90
6581;DHT22;3324;50.796;7.228;2022-11-23T08:15:01;10.00;99.90
6581;DHT22;3324;50.796;7.228;2022-11-23T08:17:27;10.00;99.90
6581;DHT22;3324;50.796;7.228;2022-11-23T08:19:52;10.10;99.90
6581;DHT22;3324;50.796;7.228;2022-11-23T08:22:18;10.10;99.90
6581;DHT22;3324;50.796;7.228;2022-11-23T08:24:44;10.00;99.90
6581;DHT22;3324;50.796;7.228;2022-11-23T08:27:09;10.00;99.90
6581;DHT22;3324;50.796;7.228;2022-11-23T08:29:35;10.00;99.90
6581;DHT22;3324;50.796;7.228;2022-11-23T08:32:00;10.10;99.90
6581;DHT22;3324;50.796;7.228;2022-11-23T08:34:26;10.10;99.90
6581;DHT22;3324;50.796;7.228;2022-11-23T08:36:52;10.10;99.90
6581;DHT22;3324;50.796;7.228;2022-11-23T08:39:17;10.20;99.90
6581;DHT22;3324;50.796;7.228;2022-11-23T08:41:44;10.20;99.90
6581;DHT22;3324;50.796;7.228;2022-11-23T08:44:09;10.30;99.90
6581;DHT22;3324;50.796;7.228;2022-11-23T08:46:37;10.30;99.90
6581;DHT22;3324;50.796;7.228;2022-11-23T08:49:03;10.40;99.90
6581;DHT22;3324;50.796;7.228;2022-11-23T08:51:30;10.30;99.90
6581;DHT22;3324;50.796;7.228;2022-11-23T08:53:56;10.40;99.90
6581;DHT22;3324;50.796;7.228;2022-11-23T08:56:22;10.40;99.90
6581;DHT22;3324;50.796;7.228;2022-11-23T08:58:47;10.40;99.90
6581;DHT22;3324;50.796;7.228;2022-11-23T09:01:16;10.40;99.90
6581;DHT22;3324;50.796;7.228;2022-11-23T09:03:42;10.50;99.90
6581;DHT22;3324;50.796;7.228;2022-11-23T09:06:08;10.50;99.90
6581;DHT22;3324;50.796;7.228;2022-11-23T09:08:35;10.60;99.90
6581;DHT22;3324;50.796;7.228;2022-11-23T09:11:03;10.50;99.90
6581;DHT22;3324;50.796;7.228;2022-11-23T09:13:29;10.50;99.90
6581;DHT22;3324;50.796;7.228;2022-11-23T09:15:59;10.50;99.90
6581;DHT22;3324;50.796;7.228;2022-11-23T09:18:28;10.60;99.90
6581;DHT22;3324;50.796;7.228;2022-11-23T09:21:00;10.50;99.90
6581;DHT22;3324;50.796;7.228;2022-11-23T09:23:26;10.50;99.90
6581;DHT22;3324;50.796;7.228;2022-11-23T09:25:52;10.50;99.90
6581;DHT22;3324;50.796;7.228;2022-11-23T09:28:18;10.50;99.90
6581;DHT22;3324;50.796;7.228;2022-11-23T09:30:49;10.50;99.90
6581;DHT22;3324;50.796;7.228;2022-11-23T09:33:14;10.60;99.90
6581;DHT22;3324;50.796;7.228;2022-11-23T09:35:40;10.70;99.90
6581;DHT22;3324;50.796;7.228;2022-11-23T09:38:05;10.80;99.90
6581;DHT22;3324;50.796;7.228;2022-11-23T09:40:35;10.90;99.90
6581;DHT22;3324;50.796;7.228;2022-11-23T09:47:05;10.90;99.90
6581;DHT22;3324;50.796;7.228;2022-11-23T09:49:52;11.00;99.90
6581;DHT22;3324;50.796;7.228;2022-11-23T09:52:23;11.10;99.90
6581;DHT22;3324;50.796;7.228;2022-11-23T09:54:52;11.20;99.90
6581;DHT22;3324;50.796;7.228;2022-11-23T09:57:23;11.30;99.90
6581;DHT22;3324;50.796;7.228;2022-11-23T10:00:16;11.20;99.90
6581;DHT22;3324;50.796;7.228;2022-11-23T10:02:40;11.20;99.90
6581;DHT22;3324;50.796;7.228;2022-11-23T10:05:06;11.20;99.90
6581;DHT22;3324;50.796;7.228;2022-11-23T10:07:56;11.10;99.90
6581;DHT22;3324;50.796;7.228;2022-11-23T10:18:36;10.70;99.90
6581;DHT22;3324;50.796;7.228;2022-11-23T10:24:17;10.80;99.90
6581;DHT22;3324;50.796;7.228;2022-11-23T10:26:46;10.80;99.90
6581;DHT22;3324;50.796;7.228;2022-11-23T10:29:36;10.70;99.90
6581;DHT22;3324;50.796;7.228;2022-11-23T10:32:04;10.70;99.90
6581;DHT22;3324;50.796;7.228;2022-11-23T10:34:45;10.70;99.90
6581;DHT22;3324;50.796;7.228;2022-11-23T10:37:14;10.70;99.90
6581;DHT22;3324;50.796;7.228;2022-11-23T10:39:40;10.60;99.90
6581;DHT22;3324;50.796;7.228;2022-11-23T10:42:39;10.70;99.90
6581;DHT22;3324;50.796;7.228;2022-11-23T10:45:21;10.70;99.90
6581;DHT22;3324;50.796;7.228;2022-11-23T10:47:58;10.70;99.90
6581;DHT22;3324;50.796;7.228;2022-11-23T10:50:35;10.80;99.90
6581;DHT22;3324;50.796;7.228;2022-11-23T10:53:19;10.90;99.90
6581;DHT22;3324;50.796;7.228;2022-11-23T10:55:49;10.90;99.90
6581;DHT22;3324;50.796;7.228;2022-11-23T10:58:30;11.00;99.90
6581;DHT22;3324;50.796;7.228;2022-11-23T11:01:01;11.20;99.90
6581;DHT22;3324;50.796;7.228;2022-11-23T11:03:31;11.30;99.90
6581;DHT22;3324;50.796;7.228;2022-11-23T11:05:58;11.30;99.90
6581;DHT22;3324;50.796;7.228;2022-11-23T11:08:45;11.40;99.90
6581;DHT22;3324;50.796;7.228;2022-11-23T11:11:23;11.40;99.90
6581;DHT22;3324;50.796;7.228;2022-11-23T11:13:48;11.60;99.90
6581;DHT22;3324;50.796;7.228;2022-11-23T11:18:49;11.60;99.90
6581;DHT22;3324;50.796;7.228;2022-11-23T11:21:34;11.70;99.90
6581;DHT22;3324;50.796;7.228;2022-11-23T11:24:14;11.60;99.90
6581;DHT22;3324;50.796;7.228;2022-11-23T11:26:53;11.60;99.90
6581;DHT22;3324;50.796;7.228;2022-11-23T11:29:29;11.70;99.90
6581;DHT22;3324;50.796;7.228;2022-11-23T11:32:01;11.70;99.90
6581;DHT22;3324;50.796;7.228;2022-11-23T11:39:56;12.00;99.90
6581;DHT22;3324;50.796;7.228;2022-11-23T11:42:54;12.00;99.90
6581;DHT22;3324;50.796;7.228;2022-11-23T11:48:08;11.80;99.90
6581;DHT22;3324;50.796;7.228;2022-11-23T11:50:49;11.80;99.90
6581;DHT22;3324;50.796;7.228;2022-11-23T11:56:40;11.60;99.90
6581;DHT22;3324;50.796;7.228;2022-11-23T11:59:27;11.60;99.90
6581;DHT22;3324;50.796;7.228;2022-11-23T12:04:36;11.50;99.90
6581;DHT22;3324;50.796;7.228;2022-11-23T12:09:46;11.40;99.90
6581;DHT22;3324;50.796;7.228;2022-11-23T12:12:16;11.40;99.90
6581;DHT22;3324;50.796;7.228;2022-11-23T12:14:43;11.30;99.90
6581;DHT22;3324;50.796;7.228;2022-11-23T12:25:31;11.40;99.90
6581;DHT22;3324;50.796;7.228;2022-11-23T12:40:18;11.80;99.90
6581;DHT22;3324;50.796;7.228;2022-11-23T12:42:49;12.00;99.90
6581;DHT22;3324;50.796;7.228;2022-11-23T12:45:55;12.20;99.90
6581;DHT22;3324;50.796;7.228;2022-11-23T12:48:31;12.30;99.90
6581;DHT22;3324;50.796;7.228;2022-11-23T12:51:16;12.30;99.90
6581;DHT22;3324;50.796;7.228;2022-11-23T12:56:49;12.00;99.90
6581;DHT22;3324;50.796;7.228;2022-11-23T12:59:18;11.90;99.90
6581;DHT22;3324;50.796;7.228;2022-11-23T13:01:49;11.80;99.90
6581;DHT22;3324;50.796;7.228;2022-11-23T13:10:24;11.60;99.90
6581;DHT22;3324;50.796;7.228;2022-11-23T13:13:20;11.60;99.90
6581;DHT22;3324;50.796;7.228;2022-11-23T13:18:59;11.50;99.90
6581;DHT22;3324;50.796;7.228;2022-11-23T13:21:38;11.60;99.90
6581;DHT22;3324;50.796;7.228;2022-11-23T13:35:00;11.80;99.90
6581;DHT22;3324;50.796;7.228;2022-11-23T13:37:25;11.90;99.90
6581;DHT22;3324;50.796;7.228;2022-11-23T13:42:26;11.80;99.90
6581;DHT22;3324;50.796;7.228;2022-11-23T13:50:27;11.60;99.90
6581;DHT22;3324;50.796;7.228;2022-11-23T13:52:53;11.60;99.90
6581;DHT22;3324;50.796;7.228;2022-11-23T13:55:25;11.60;99.90
6581;DHT22;3324;50.796;7.228;2022-11-23T14:00:54;11.50;99.90
6581;DHT22;3324;50.796;7.228;2022-11-23T14:09:18;11.30;99.90
6581;DHT22;3324;50.796;7.228;2022-11-23T14:14:48;11.40;99.90
6581;DHT22;3324;50.796;7.228;2022-11-23T14:25:59;11.10;99.90
6581;DHT22;3324;50.796;7.228;2022-11-23T14:31:26;11.00;99.90
6581;DHT22;3324;50.796;7.228;2022-11-23T14:34:27;10.90;99.90
6581;DHT22;3324;50.796;7.228;2022-11-23T14:40:10;10.80;99.90
6581;DHT22;3324;50.796;7.228;2022-11-23T14:42:41;10.80;99.90
6581;DHT22;3324;50.796;7.228;2022-11-23T14:45:12;10.70;99.90
6581;DHT22;3324;50.796;7.228;2022-11-23T14:47:39;10.70;99.90
6581;DHT22;3324;50.796;7.228;2022-11-23T14:50:05;10.70;99.90
6581;DHT22;3324;50.796;7.228;2022-11-23T14:52:33;10.60;99.90
6581;DHT22;3324;50.796;7.228;2022-11-23T14:55:03;10.60;99.90
6581;DHT22;3324;50.796;7.228;2022-11-23T14:57:38;10.60;99.90
6581;DHT22;3324;50.796;7.228;2022-11-23T15:00:29;10.60;99.90
6581;DHT22;3324;50.796;7.228;2022-11-23T15:03:00;10.50;99.90
6581;DHT22;3324;50.796;7.228;2022-11-23T15:05:32;10.60;99.90
6581;DHT22;3324;50.796;7.228;2022-11-23T15:08:24;10.50;99.90
6581;DHT22;3324;50.796;7.228;2022-11-23T15:11:22;10.60;99.90
6581;DHT22;3324;50.796;7.228;2022-11-23T15:13:52;10.60;99.90
6581;DHT22;3324;50.796;7.228;2022-11-23T15:16:20;10.60;99.90
6581;DHT22;3324;50.796;7.228;2022-11-23T15:18:46;10.60;99.90
6581;DHT22;3324;50.796;7.228;2022-11-23T15:21:20;10.60;99.90
6581;DHT22;3324;50.796;7.228;2022-11-23T15:23:52;10.60;99.90
6581;DHT22;3324;50.796;7.228;2022-11-23T15:26:23;10.60;99.90
6581;DHT22;3324;50.796;7.228;2022-11-23T15:28:50;10.60;99.90
6581;DHT22;3324;50.796;7.228;2022-11-23T15:31:35;10.50;99.90
6581;DHT22;3324;50.796;7.228;2022-11-23T15:34:21;10.40;99.90
6581;DHT22;3324;50.796;7.228;2022-11-23T15:36:47;10.40;99.90
6581;DHT22;3324;50.796;7.228;2022-11-23T15:39:18;10.20;99.90
6581;DHT22;3324;50.796;7.228;2022-11-23T15:41:45;10.20;99.90
6581;DHT22;3324;50.796;7.228;2022-11-23T15:44:23;10.20;99.90
6581;DHT22;3324;50.796;7.228;2022-11-23T15:47:02;10.20;99.90
6581;DHT22;3324;50.796;7.228;2022-11-23T15:49:28;10.10;99.90
6581;DHT22;3324;50.796;7.228;2022-11-23T15:52:00;10.10;99.90
6581;DHT22;3324;50.796;7.228;2022-11-23T15:54:33;10.10;99.90
6581;DHT22;3324;50.796;7.228;2022-11-23T15:57:00;10.00;99.90
6581;DHT22;3324;50.796;7.228;2022-11-23T16:02:20;10.00;99.90
6581;DHT22;3324;50.796;7.228;2022-11-23T16:04:47;9.90;99.90
6581;DHT22;3324;50.796;7.228;2022-11-23T16:09:42;9.90;99.90
6581;DHT22;3324;50.796;7.228;2022-11-23T16:12:30;9.90;99.90
6581;DHT22;3324;50.796;7.228;2022-11-23T16:14:58;10.00;99.90
6581;DHT22;3324;50.796;7.228;2022-11-23T16:17:43;10.10;99.90
6581;DHT22;3324;50.796;7.228;2022-11-23T16:20:14;9.90;99.90
6581;DHT22;3324;50.796;7.228;2022-11-23T16:22:46;10.10;99.90
6581;DHT22;3324;50.796;7.228;2022-11-23T16:25:32;10.10;99.90
6581;DHT22;3324;50.796;7.228;2022-11-23T16:28:35;9.90;99.90
6581;DHT22;3324;50.796;7.228;2022-11-23T16:31:02;9.90;99.90
6581;DHT22;3324;50.796;7.228;2022-11-23T16:33:28;9.90;99.90
6581;DHT22;3324;50.796;7.228;2022-11-23T16:35:54;10.00;99.90
6581;DHT22;3324;50.796;7.228;2022-11-23T16:38:20;9.90;99.90
6581;DHT22;3324;50.796;7.228;2022-11-23T16:40:46;9.90;99.90
6581;DHT22;3324;50.796;7.228;2022-11-23T16:43:13;9.80;99.90
6581;DHT22;3324;50.796;7.228;2022-11-23T16:45:44;9.90;99.90
6581;DHT22;3324;50.796;7.228;2022-11-23T16:50:52;9.70;99.90
6581;DHT22;3324;50.796;7.228;2022-11-23T16:53:19;9.80;99.90
6581;DHT22;3324;50.796;7.228;2022-11-23T16:55:54;9.70;99.90
6581;DHT22;3324;50.796;7.228;2022-11-23T16:58:21;9.60;99.90
6581;DHT22;3324;50.796;7.228;2022-11-23T17:00:47;9.70;99.90
6581;DHT22;3324;50.796;7.228;2022-11-23T17:03:14;9.70;99.90
6581;DHT22;3324;50.796;7.228;2022-11-23T17:05:41;9.70;99.90
6581;DHT22;3324;50.796;7.228;2022-11-23T17:08:06;9.70;99.90
6581;DHT22;3324;50.796;7.228;2022-11-23T17:10:32;9.60;99.90
6581;DHT22;3324;50.796;7.228;2022-11-23T17:12:59;9.60;99.90
6581;DHT22;3324;50.796;7.228;2022-11-23T17:15:24;9.50;99.90
6581;DHT22;3324;50.796;7.228;2022-11-23T17:17:50;9.50;99.90
6581;DHT22;3324;50.796;7.228;2022-11-23T17:20:17;9.50;99.90
6581;DHT22;3324;50.796;7.228;2022-11-23T17:22:43;9.40;99.90
6581;DHT22;3324;50.796;7.228;2022-11-23T17:25:10;9.30;99.90
6581;DHT22;3324;50.796;7.228;2022-11-23T17:27:38;9.30;99.90
6581;DHT22;3324;50.796;7.228;2022-11-23T17:30:30;9.30;99.90
6581;DHT22;3324;50.796;7.228;2022-11-23T17:32:57;9.20;99.90
6581;DHT22;3324;50.796;7.228;2022-11-23T17:35:24;9.30;99.90
6581;DHT22;3324;50.796;7.228;2022-11-23T17:37:50;9.20;99.90
6581;DHT22;3324;50.796;7.228;2022-11-23T17:40:19;9.20;99.90
6581;DHT22;3324;50.796;7.228;2022-11-23T17:42:46;9.10;99.90
6581;DHT22;3324;50.796;7.228;2022-11-23T17:45:12;9.20;99.90
6581;DHT22;3324;50.796;7.228;2022-11-23T17:47:39;9.20;99.90
6581;DHT22;3324;50.796;7.228;2022-11-23T17:50:12;9.20;99.90
6581;DHT22;3324;50.796;7.228;2022-11-23T17:52:38;9.10;99.90
6581;DHT22;3324;50.796;7.228;2022-11-23T17:55:07;9.10;99.90
6581;DHT22;3324;50.796;7.228;2022-11-23T17:57:33;9.10;99.90
6581;DHT22;3324;50.796;7.228;2022-11-23T17:59:59;9.10;99.90
6581;DHT22;3324;50.796;7.228;2022-11-23T18:02:24;9.20;99.90
6581;DHT22;3324;50.796;7.228;2022-11-23T18:04:50;9.10;99.90
6581;DHT22;3324;50.796;7.228;2022-11-23T18:07:15;9.10;99.90
6581;DHT22;3324;50.796;7.228;2022-11-23T18:09:41;9.10;99.90
6581;DHT22;3324;50.796;7.228;2022-11-23T18:12:08;9.20;99.90
6581;DHT22;3324;50.796;7.228;2022-11-23T18:14:34;9.10;99.90
6581;DHT22;3324;50.796;7.228;2022-11-23T18:16:59;9.10;99.90
6581;DHT22;3324;50.796;7.228;2022-11-23T18:19:25;9.00;99.90
6581;DHT22;3324;50.796;7.228;2022-11-23T18:21:51;9.00;99.90
6581;DHT22;3324;50.796;7.228;2022-11-23T18:24:17;9.00;99.90
6581;DHT22;3324;50.796;7.228;2022-11-23T18:26:43;9.00;99.90